createdAt,value
2018-11-13T08:41:21.372Z,1011.90
2018-11-13T08:56:22.216Z,1012.65
2018-11-13T08:58:38.531Z,1012.76
2018-11-13T09:01:55.283Z,1012.74
2018-11-13T09:07:19.230Z,1012.78
2018-11-13T09:08:07.980Z,1012.74
2018-11-13T09:10:36.329Z,1012.72
2018-11-13T09:12:26.730Z,1012.85
2018-11-13T09:21:33.382Z,1013.11
2018-11-13T09:27:04.437Z,1012.86
2018-11-13T09:30:44.068Z,1013.00
2018-11-13T09:36:20.313Z,1013.17
2018-11-13T09:39:16.874Z,1013.18
2018-11-13T09:41:49.845Z,1013.11
2018-11-13T09:42:45.618Z,1013.15
2018-11-13T09:44:48.816Z,1013.21
2018-11-13T09:45:48.982Z,1013.28
2018-11-13T09:48:22.545Z,1013.39
2018-11-13T09:49:17.591Z,1013.37
2018-11-13T09:52:51.612Z,1013.50
2018-11-13T09:53:51.203Z,1013.56
2018-11-13T09:56:43.317Z,1013.47
2018-11-13T09:57:47.210Z,1013.44
2018-11-13T09:59:49.564Z,1013.51
2018-11-13T10:03:05.789Z,1013.51
2018-11-13T10:05:21.153Z,1013.59
2018-11-13T10:13:26.618Z,1013.51
2018-11-13T10:16:45.819Z,1013.45
2018-11-13T10:17:18.588Z,1013.54
2018-11-13T10:20:13.559Z,1013.68
2018-11-13T10:22:21.834Z,1013.55
2018-11-13T10:24:40.019Z,1013.60
2018-11-13T10:33:32.692Z,1013.74
2018-11-13T10:34:43.105Z,1013.72
2018-11-13T10:37:43.041Z,1013.92
2018-11-13T10:39:45.195Z,1013.93
2018-11-13T10:44:02.338Z,1013.87
2018-11-13T10:45:40.260Z,1013.79
2018-11-13T10:48:05.550Z,1013.87
2018-11-13T10:50:19.674Z,1013.85
2018-11-13T10:53:44.575Z,1013.74
2018-11-13T10:54:41.744Z,1013.82
2018-11-13T10:56:42.520Z,1013.82
2018-11-13T10:57:37.494Z,1013.83
2018-11-13T10:59:36.001Z,1013.80
2018-11-13T11:00:36.087Z,1013.88
2018-11-13T11:02:32.848Z,1013.89
2018-11-13T11:03:34.147Z,1013.97
2018-11-13T11:05:55.115Z,1013.88
2018-11-13T11:06:26.564Z,1013.93
2018-11-13T11:10:57.085Z,1013.86
2018-11-13T11:13:38.760Z,1013.89
2018-11-13T11:16:40.520Z,1013.89
2018-11-13T11:21:47.544Z,1013.85
2018-11-13T11:22:49.168Z,1013.99
2018-11-13T11:26:39.031Z,1013.88
2018-11-13T11:27:25.520Z,1013.92
2018-11-13T11:29:23.480Z,1013.94
2018-11-13T11:30:23.507Z,1013.99
2018-11-13T11:32:34.999Z,1013.99
2018-11-13T11:33:29.383Z,1014.05
2018-11-13T11:37:18.669Z,1014.13
2018-11-13T11:40:13.296Z,1014.20
2018-11-13T11:41:10.731Z,1014.16
2018-11-13T11:50:48.486Z,1014.20
2018-11-13T11:51:21.398Z,1014.22
2018-11-13T11:55:52.297Z,1014.33
2018-11-13T11:56:27.560Z,1014.27
2018-11-13T11:58:49.266Z,1014.27
2018-11-13T11:59:21.157Z,1014.29
2018-11-13T12:03:28.439Z,1014.27
2018-11-13T12:17:14.932Z,1014.27
2018-11-13T12:23:44.411Z,1014.34
2018-11-13T12:29:49.730Z,1014.26
2018-11-13T12:30:43.599Z,1014.26
2018-11-13T12:32:38.462Z,1014.27
2018-11-13T12:33:39.659Z,1014.28
2018-11-13T12:35:37.764Z,1014.28
2018-11-13T12:36:37.698Z,1014.22
2018-11-13T12:38:39.655Z,1014.30
2018-11-13T12:50:50.815Z,1014.37
2018-11-13T12:55:55.782Z,1014.49
2018-11-13T12:56:55.833Z,1014.51
2018-11-13T12:58:50.644Z,1014.56
2018-11-13T12:59:49.731Z,1014.55
2018-11-13T13:01:45.625Z,1014.53
2018-11-13T13:02:45.437Z,1014.50
2018-11-13T13:04:41.126Z,1014.54
2018-11-13T13:05:39.770Z,1014.50
2018-11-13T13:07:34.956Z,1014.59
2018-11-13T13:08:33.624Z,1014.61
2018-11-13T13:10:29.243Z,1014.57
2018-11-13T13:11:29.104Z,1014.55
2018-11-13T13:13:23.417Z,1014.61
2018-11-13T13:14:23.379Z,1014.65
2018-11-13T13:16:20.406Z,1014.58
2018-11-13T13:17:19.031Z,1014.52
2018-11-13T13:19:13.858Z,1014.43
2018-11-13T13:20:14.719Z,1014.47
2018-11-13T13:22:11.011Z,1014.52
2018-11-13T13:23:08.324Z,1014.53
2018-11-13T13:25:03.113Z,1014.50
2018-11-13T13:26:02.869Z,1014.51
2018-11-13T13:28:00.878Z,1014.40
2018-11-13T13:28:56.630Z,1014.43
2018-11-13T13:30:52.388Z,1014.47
2018-11-13T13:31:50.911Z,1014.50
2018-11-13T13:34:00.414Z,1014.51
2018-11-13T13:34:59.514Z,1014.53
2018-11-13T13:36:56.085Z,1014.53
2018-11-13T13:37:55.146Z,1014.50
2018-11-13T13:39:50.217Z,1014.59
2018-11-13T13:40:48.770Z,1014.57
2018-11-13T13:42:44.535Z,1014.65
2018-11-13T13:43:44.842Z,1014.64
2018-11-13T13:45:39.432Z,1014.69
2018-11-13T13:46:42.450Z,1014.72
2018-11-13T13:50:10.748Z,1014.74
2018-11-13T13:52:21.948Z,1014.69
2018-11-13T13:53:23.044Z,1014.68
2018-11-13T13:55:26.097Z,1014.71
2018-11-13T13:57:45.247Z,1014.75
2018-11-13T13:58:45.193Z,1014.68
2018-11-13T14:00:40.310Z,1014.82
2018-11-13T14:01:41.246Z,1014.68
2018-11-13T14:03:49.381Z,1014.60
2018-11-13T14:04:49.211Z,1014.64
2018-11-13T14:06:44.178Z,1014.68
2018-11-13T14:07:43.453Z,1014.65
2018-11-13T14:09:40.719Z,1014.76
2018-11-13T14:10:38.702Z,1014.81
2018-11-13T14:13:03.490Z,1014.82
2018-11-13T14:15:53.585Z,1014.75
2018-11-13T14:16:34.207Z,1014.85
2018-11-13T14:19:21.883Z,1014.88
2018-11-13T14:20:23.706Z,1014.87
2018-11-13T14:22:25.713Z,1014.84
2018-11-13T14:23:24.841Z,1014.84
2018-11-13T14:25:18.737Z,1014.89
2018-11-13T14:26:20.457Z,1014.88
2018-11-13T14:28:15.877Z,1014.93
2018-11-13T14:29:14.243Z,1014.95
2018-11-13T14:31:09.256Z,1014.97
2018-11-13T14:32:08.909Z,1015.00
2018-11-13T14:34:08.214Z,1015.03
2018-11-13T14:35:06.493Z,1014.98
2018-11-13T14:37:07.202Z,1014.97
2018-11-13T14:39:25.621Z,1015.08
2018-11-13T14:40:19.583Z,1015.02
2018-11-13T14:42:19.959Z,1015.04
2018-11-13T14:44:28.740Z,1015.05
2018-11-13T14:45:29.362Z,1015.13
2018-11-13T14:47:23.586Z,1015.09
2018-11-13T14:50:19.926Z,1015.13
2018-11-13T14:53:15.497Z,1015.14
2018-11-13T14:54:15.186Z,1015.16
2018-11-13T14:56:11.968Z,1015.10
2018-11-13T14:57:11.026Z,1015.19
2018-11-13T14:59:07.590Z,1015.12
2018-11-13T15:00:09.368Z,1015.10
2018-11-13T15:02:00.486Z,1015.13
2018-11-13T15:03:03.461Z,1015.21
2018-11-13T15:04:58.426Z,1015.19
2018-11-13T15:07:50.946Z,1015.08
2018-11-13T15:08:50.505Z,1015.22
2018-11-13T15:10:46.634Z,1015.20
2018-11-13T15:11:47.029Z,1015.28
2018-11-13T15:13:39.969Z,1015.20
2018-11-13T15:14:40.307Z,1015.25
2018-11-13T15:16:52.614Z,1015.23
2018-11-13T15:17:51.988Z,1015.29
2018-11-13T15:19:51.357Z,1015.29
2018-11-13T15:20:48.534Z,1015.27
2018-11-13T15:22:41.140Z,1015.33
2018-11-13T15:23:41.100Z,1015.34
2018-11-13T15:25:38.705Z,1015.25
2018-11-13T15:26:36.674Z,1015.29
2018-11-13T15:28:36.254Z,1015.38
2018-11-13T15:29:34.843Z,1015.43
2018-11-13T15:31:30.444Z,1015.32
2018-11-13T15:51:59.575Z,1015.61
2018-11-13T15:52:53.951Z,1015.69
2018-11-13T15:55:02.815Z,1015.64
2018-11-13T15:55:54.434Z,1015.69
2018-11-13T15:57:45.296Z,1015.65
2018-11-13T15:58:45.959Z,1015.69
2018-11-13T16:01:21.597Z,1015.67
2018-11-13T16:03:13.183Z,1015.66
2018-11-13T16:04:04.123Z,1015.69
2018-11-13T16:06:16.975Z,1015.65
2018-11-13T16:07:11.799Z,1015.67
2018-11-13T16:13:24.490Z,1015.70
2018-11-13T16:16:25.484Z,1015.73
2018-11-13T16:17:12.306Z,1015.72
2018-11-13T16:21:44.464Z,1015.81
2018-11-13T16:22:38.531Z,1015.82
2018-11-13T16:28:52.033Z,1015.91
2018-11-13T16:32:50.613Z,1015.97
2018-11-13T17:15:55.930Z,1016.41
2018-11-13T17:17:51.084Z,1016.40
2018-11-13T17:26:05.977Z,1016.51
2018-11-13T17:26:52.870Z,1016.51
2018-11-13T17:28:55.857Z,1016.49
2018-11-13T17:29:50.284Z,1016.53
2018-11-13T17:31:47.289Z,1016.54
2018-11-13T17:32:46.405Z,1016.51
2018-11-13T17:34:43.036Z,1016.51
2018-11-13T17:35:41.642Z,1016.50
2018-11-13T17:37:39.100Z,1016.54
2018-11-13T17:38:38.829Z,1016.55
2018-11-13T17:40:36.314Z,1016.54
2018-11-13T17:41:31.044Z,1016.56
2018-11-13T17:43:27.350Z,1016.56
2018-11-13T17:45:52.775Z,1016.54
2018-11-13T17:48:50.546Z,1016.58
2018-11-13T17:49:49.059Z,1016.66
2018-11-13T17:52:03.813Z,1016.65
2018-11-13T17:52:44.340Z,1016.63
2018-11-13T17:54:49.753Z,1016.72
2018-11-13T17:59:14.103Z,1016.81
2018-11-13T18:00:12.518Z,1016.81
2018-11-13T18:02:26.202Z,1016.83
2018-11-13T18:03:26.552Z,1016.83
2018-11-13T18:05:17.312Z,1016.81
2018-11-13T18:06:14.889Z,1016.79
2018-11-13T18:08:15.379Z,1016.77
2018-11-13T18:12:44.549Z,1016.81
2018-11-13T18:13:45.091Z,1016.85
2018-11-13T18:15:45.214Z,1016.84
2018-11-13T18:16:40.393Z,1016.91
2018-11-13T18:18:37.757Z,1016.95
2018-11-13T18:19:36.638Z,1016.98
2018-11-13T18:21:32.020Z,1017.03
2018-11-13T18:22:33.078Z,1017.01
2018-11-13T18:24:31.485Z,1017.05
2018-11-13T18:25:30.871Z,1017.06
2018-11-13T18:27:27.069Z,1017.10
2018-11-13T18:28:27.406Z,1017.09
2018-11-13T18:30:24.939Z,1017.11
2018-11-13T18:31:24.875Z,1017.04
2018-11-13T18:38:07.263Z,1017.04
2018-11-13T18:38:50.475Z,1017.04
2018-11-13T18:40:46.373Z,1017.10
2018-11-13T18:41:45.803Z,1017.08
2018-11-13T18:43:40.094Z,1017.08
2018-11-13T18:44:40.208Z,1017.09
2018-11-13T18:46:36.184Z,1017.15
2018-11-13T18:50:47.955Z,1017.13
2018-11-13T18:51:46.105Z,1017.07
2018-11-13T18:53:43.329Z,1017.09
2018-11-13T18:56:39.282Z,1017.06
2018-11-13T18:57:38.728Z,1017.04
2018-11-13T18:59:36.648Z,1017.03
2018-11-13T19:00:36.340Z,1017.07
2018-11-13T19:02:30.869Z,1017.08
2018-11-13T19:03:31.486Z,1017.02
2018-11-13T19:05:31.425Z,1017.04
2018-11-13T19:06:35.837Z,1017.09
2018-11-13T19:08:30.069Z,1017.04
2018-11-13T19:09:28.032Z,1017.07
2018-11-13T19:11:25.438Z,1017.06
2018-11-13T19:12:25.836Z,1017.06
2018-11-13T19:14:23.606Z,1017.05
2018-11-13T19:15:20.538Z,1017.04
2018-11-13T19:17:16.432Z,1017.03
2018-11-13T19:18:18.508Z,1017.03
2018-11-13T19:20:42.192Z,1017.02
2018-11-13T19:21:13.184Z,1017.02
2018-11-13T19:23:10.395Z,1017.03
2018-11-13T19:24:11.664Z,1017.04
2018-11-13T19:26:05.479Z,1017.09
2018-11-13T19:27:04.362Z,1017.09
2018-11-13T19:29:00.556Z,1017.11
2018-11-13T19:30:00.771Z,1017.11
2018-11-13T19:32:14.482Z,1017.14
2018-11-13T19:33:10.339Z,1017.15
2018-11-13T19:35:08.597Z,1017.14
2018-11-13T19:36:05.750Z,1017.13
2018-11-13T19:38:03.539Z,1017.13
2018-11-13T19:39:02.795Z,1017.11
2018-11-13T19:40:56.579Z,1017.12
2018-11-13T19:41:55.869Z,1017.12
2018-11-13T19:43:57.010Z,1017.06
2018-11-13T19:44:51.565Z,1017.09
2018-11-13T19:47:16.294Z,1017.11
2018-11-13T19:51:11.077Z,1017.16
2018-11-13T19:52:50.897Z,1017.19
2018-11-13T19:55:51.460Z,1017.31
2018-11-13T19:56:55.376Z,1017.33
2018-11-13T19:58:49.448Z,1017.31
2018-11-13T19:59:46.998Z,1017.32
2018-11-13T20:01:46.380Z,1017.32
2018-11-13T20:02:43.710Z,1017.37
2018-11-13T20:04:43.630Z,1017.37
2018-11-13T20:07:55.647Z,1017.38
2018-11-13T20:09:55.238Z,1017.34
2018-11-13T20:10:54.414Z,1017.29
2018-11-13T20:13:10.481Z,1017.38
2018-11-13T20:13:48.172Z,1017.36
2018-11-13T20:15:44.168Z,1017.37
2018-11-13T20:18:00.804Z,1017.40
2018-11-13T20:19:01.137Z,1017.41
2018-11-13T20:20:59.122Z,1017.39
2018-11-13T20:21:57.996Z,1017.41
2018-11-13T20:23:57.131Z,1017.44
2018-11-13T20:24:52.200Z,1017.46
2018-11-13T20:26:49.746Z,1017.46
2018-11-13T20:27:46.898Z,1017.48
2018-11-13T20:29:43.816Z,1017.47
2018-11-13T20:30:41.215Z,1017.50
2018-11-13T20:32:42.727Z,1017.51
2018-11-13T20:36:01.974Z,1017.55
2018-11-13T20:36:40.311Z,1017.48
2018-11-13T20:38:48.272Z,1017.50
2018-11-13T20:39:48.706Z,1017.52
2018-11-13T20:41:43.536Z,1017.51
2018-11-13T20:42:43.412Z,1017.53
2018-11-13T20:44:36.171Z,1017.56
2018-11-13T20:45:36.500Z,1017.57
2018-11-13T20:47:44.273Z,1017.57
2018-11-13T20:48:43.902Z,1017.53
2018-11-13T20:50:40.813Z,1017.55
2018-11-13T20:51:40.137Z,1017.53
2018-11-13T20:53:37.214Z,1017.57
2018-11-13T20:54:37.095Z,1017.56
2018-11-13T20:56:33.424Z,1017.55
2018-11-13T20:57:37.654Z,1017.57
2018-11-13T20:59:45.218Z,1017.57
2018-11-13T21:02:41.723Z,1017.61
2018-11-13T21:16:04.041Z,1017.63
2018-11-13T21:18:47.185Z,1017.64
2018-11-13T21:19:45.067Z,1017.66
2018-11-13T21:21:42.322Z,1017.65
2018-11-13T21:23:56.205Z,1017.67
2018-11-13T21:24:55.591Z,1017.66
2018-11-13T21:26:50.542Z,1017.66
2018-11-13T21:27:52.667Z,1017.64
2018-11-13T21:29:44.769Z,1017.63
2018-11-13T21:30:45.657Z,1017.66
2018-11-13T21:35:44.422Z,1017.62
2018-11-13T21:36:42.414Z,1017.62
2018-11-13T21:38:39.475Z,1017.68
2018-11-13T21:39:38.642Z,1017.60
2018-11-13T21:41:32.807Z,1017.64
2018-11-13T21:42:31.380Z,1017.65
2018-11-13T21:44:26.037Z,1017.66
2018-11-13T21:45:27.339Z,1017.63
2018-11-13T21:47:22.010Z,1017.72
2018-11-13T21:48:21.810Z,1017.65
2018-11-13T21:50:16.455Z,1017.69
2018-11-13T21:51:15.261Z,1017.72
2018-11-13T21:53:09.739Z,1017.68
2018-11-13T21:54:09.454Z,1017.71
2018-11-13T21:56:05.352Z,1017.68
2018-11-13T21:57:06.084Z,1017.70
2018-11-13T21:58:59.352Z,1017.64
2018-11-13T22:00:00.267Z,1017.66
2018-11-13T22:01:55.386Z,1017.68
2018-11-13T22:02:54.815Z,1017.62
2018-11-13T22:04:49.620Z,1017.66
2018-11-13T22:05:49.605Z,1017.70
2018-11-13T22:07:44.381Z,1017.65
2018-11-13T22:08:44.211Z,1017.66
2018-11-13T22:10:40.056Z,1017.66
2018-11-13T22:11:39.732Z,1017.67
2018-11-13T22:13:36.545Z,1017.63
2018-11-13T22:14:38.050Z,1017.64
2018-11-13T22:16:31.345Z,1017.63
2018-11-13T22:17:31.679Z,1017.60
2018-11-13T22:19:26.107Z,1017.60
2018-11-13T22:20:26.397Z,1017.63
2018-11-13T22:22:20.862Z,1017.64
2018-11-13T22:23:20.943Z,1017.66
2018-11-13T22:25:17.938Z,1017.74
2018-11-13T22:26:17.713Z,1017.70
2018-11-13T22:28:12.964Z,1017.72
2018-11-13T22:29:13.601Z,1017.73
2018-11-13T22:31:08.004Z,1017.72
2018-11-13T22:32:07.922Z,1017.75
2018-11-13T22:34:05.295Z,1017.71
2018-11-13T22:35:05.083Z,1017.70
2018-11-13T22:36:59.076Z,1017.73
2018-11-13T22:37:58.869Z,1017.71
2018-11-13T22:39:54.849Z,1017.73
2018-11-13T22:40:56.330Z,1017.78
2018-11-13T22:42:49.968Z,1017.74
2018-11-13T22:43:49.182Z,1017.73
2018-11-13T22:45:46.187Z,1017.74
2018-11-13T22:46:46.108Z,1017.74
2018-11-13T22:48:41.481Z,1017.74
2018-11-13T22:49:41.965Z,1017.75
2018-11-13T22:51:39.818Z,1017.70
2018-11-13T22:52:41.123Z,1017.67
